createdAt,value
2023-03-12T00:03:31.393Z,-0.90
2023-03-12T00:08:34.716Z,-0.90
2023-03-12T00:13:39.824Z,-0.90
2023-03-12T00:18:43.868Z,-0.80
2023-03-12T00:23:48.301Z,-0.80
2023-03-12T00:28:53.746Z,-0.80
2023-03-12T00:33:57.913Z,-0.80
2023-03-12T00:39:02.638Z,-0.90
2023-03-12T00:44:07.862Z,-0.90
2023-03-12T00:49:11.761Z,-1.00
2023-03-12T00:54:15.514Z,-1.00
2023-03-12T00:59:20.423Z,-0.90
2023-03-12T01:04:24.678Z,-0.80
2023-03-12T01:09:28.470Z,-0.90
2023-03-12T01:14:33.169Z,-0.90
2023-03-12T01:19:36.802Z,-0.90
2023-03-12T01:24:40.577Z,-0.90
2023-03-12T01:29:45.184Z,-1.00
2023-03-12T01:34:48.716Z,-1.00
2023-03-12T01:39:51.939Z,-1.00
2023-03-12T01:44:59.297Z,-1.00
2023-03-12T01:50:04.935Z,-1.10
2023-03-12T01:55:11.785Z,-1.00
2023-03-12T02:00:21.662Z,-0.90
2023-03-12T02:05:31.641Z,-1.00
2023-03-12T02:10:35.305Z,-1.00
2023-03-12T02:15:41.323Z,-1.00
2023-03-12T02:20:53.956Z,-1.00
2023-03-12T02:25:59.839Z,-1.00
2023-03-12T02:31:07.299Z,-1.00
2023-03-12T02:36:11.258Z,-1.10
2023-03-12T02:41:20.278Z,-1.00
2023-03-12T02:46:23.846Z,-1.00
2023-03-12T02:51:27.448Z,-1.10
2023-03-12T02:56:32.411Z,-1.10
2023-03-12T03:01:36.407Z,-1.00
2023-03-12T03:06:43.017Z,-1.00
2023-03-12T03:11:48.198Z,-1.00
2023-03-12T03:16:51.593Z,-1.00
2023-03-12T03:21:58.808Z,-1.00
2023-03-12T03:27:03.727Z,-0.90
2023-03-12T03:32:07.751Z,-0.90
2023-03-12T03:37:11.115Z,-0.90
2023-03-12T03:42:16.571Z,-1.00
2023-03-12T03:47:20.527Z,-1.00
2023-03-12T03:52:23.899Z,-1.00
2023-03-12T03:57:29.394Z,-1.20
2023-03-12T04:02:33.218Z,-1.10
2023-03-12T04:07:37.167Z,-1.10
2023-03-12T04:12:42.268Z,-1.10
2023-03-12T04:17:45.827Z,-1.00
2023-03-12T04:22:49.175Z,-1.10
2023-03-12T04:27:54.908Z,-1.10
2023-03-12T04:32:58.303Z,-1.10
2023-03-12T04:38:03.352Z,-1.10
2023-03-12T04:43:09.048Z,-1.20
2023-03-12T04:48:13.942Z,-1.30
2023-03-12T04:53:17.849Z,-1.30
2023-03-12T04:58:24.239Z,-1.30
2023-03-12T05:03:28.157Z,-1.30
2023-03-12T05:08:33.312Z,-1.30
2023-03-12T05:13:38.327Z,-1.30
2023-03-12T05:18:42.278Z,-1.40
2023-03-12T05:23:47.346Z,-1.40
2023-03-12T05:28:53.334Z,-1.40
2023-03-12T05:33:59.710Z,-1.30
2023-03-12T05:39:03.542Z,-1.30
2023-03-12T05:44:13.671Z,-1.10
2023-03-12T05:49:19.136Z,-1.10
2023-03-12T05:54:22.971Z,-1.00
2023-03-12T05:59:29.663Z,-1.00
2023-03-12T06:04:33.472Z,-0.80
2023-03-12T06:09:37.656Z,-0.70
2023-03-12T06:14:43.181Z,-0.60
2023-03-12T06:19:47.701Z,-0.40
2023-03-12T06:24:51.078Z,-0.20
2023-03-12T06:29:56.441Z,-0.10
2023-03-12T06:35:00.815Z,0.10
2023-03-12T06:40:07.418Z,0.60
2023-03-12T06:45:12.838Z,1.00
2023-03-12T06:50:16.443Z,1.40
2023-03-12T06:55:19.740Z,1.50
2023-03-12T07:00:25.322Z,1.60
2023-03-12T07:05:30.101Z,1.70
2023-03-12T07:10:33.495Z,1.90
2023-03-12T07:15:38.083Z,2.20
2023-03-12T07:20:43.318Z,2.60
2023-03-12T07:25:47.979Z,2.80
2023-03-12T07:30:52.750Z,3.00
2023-03-12T07:35:56.249Z,3.30
2023-03-12T07:41:00.945Z,3.60
2023-03-12T07:46:06.182Z,3.80
2023-03-12T07:51:09.575Z,4.10
2023-03-12T07:56:12.944Z,4.30
2023-03-12T08:01:18.315Z,4.60
2023-03-12T08:06:21.862Z,4.90
2023-03-12T08:11:25.102Z,5.00
2023-03-12T08:16:29.801Z,5.00
2023-03-12T08:21:33.129Z,5.20
2023-03-12T08:26:36.349Z,5.60
2023-03-12T08:31:53.810Z,5.60
2023-03-12T08:37:05.007Z,5.80
2023-03-12T08:42:08.824Z,6.10
2023-03-12T08:47:13.471Z,6.30
2023-03-12T08:52:17.162Z,6.40
2023-03-12T08:57:20.859Z,6.50
2023-03-12T09:02:26.047Z,6.80
2023-03-12T09:07:29.840Z,7.10
2023-03-12T09:12:33.765Z,7.40
2023-03-12T09:17:38.840Z,7.30
2023-03-12T09:22:43.156Z,7.70
2023-03-12T09:27:48.521Z,8.00
2023-03-12T09:32:53.681Z,8.10
2023-03-12T09:37:57.423Z,8.10
2023-03-12T09:43:04.242Z,7.90
2023-03-12T09:48:16.013Z,8.30
2023-03-12T09:53:28.871Z,8.40
2023-03-12T09:58:34.293Z,8.70
2023-03-12T10:03:56.147Z,8.80
2023-03-12T10:09:13.674Z,9.00
2023-03-12T10:14:26.842Z,9.10
2023-03-12T10:19:52.214Z,9.10
2023-03-12T10:25:06.647Z,9.00
2023-03-12T10:30:19.765Z,9.00
2023-03-12T10:35:27.385Z,8.70
2023-03-12T10:40:34.600Z,8.70
2023-03-12T10:45:43.717Z,8.80
2023-03-12T10:51:02.958Z,9.30
2023-03-12T10:56:08.877Z,9.50
2023-03-12T11:01:21.581Z,9.30
2023-03-12T11:06:28.663Z,9.50
2023-03-12T11:11:34.213Z,9.40
2023-03-12T11:16:37.530Z,9.20
2023-03-12T11:21:56.968Z,9.20
2023-03-12T11:27:06.916Z,9.20
2023-03-12T11:32:17.846Z,9.10
2023-03-12T11:37:32.942Z,9.10
2023-03-12T11:42:51.987Z,9.40
2023-03-12T11:48:15.737Z,9.70
2023-03-12T11:53:40.425Z,10.10
2023-03-12T11:59:11.994Z,10.30
2023-03-12T12:04:37.349Z,10.30
2023-03-12T12:09:50.476Z,10.50
2023-03-12T12:15:05.369Z,10.60
2023-03-12T12:20:26.847Z,10.40
2023-03-12T12:25:46.791Z,10.20
2023-03-12T12:31:06.221Z,10.30
2023-03-12T12:36:11.371Z,10.10
2023-03-12T12:41:19.341Z,9.90
2023-03-12T12:46:25.050Z,9.80
2023-03-12T12:51:31.366Z,9.80
2023-03-12T12:56:44.917Z,9.70
2023-03-12T13:01:48.849Z,9.60
2023-03-12T13:07:01.298Z,9.40
2023-03-12T13:12:22.888Z,9.20
2023-03-12T13:17:36.791Z,9.10
2023-03-12T13:23:06.913Z,9.20
2023-03-12T13:28:35.594Z,9.10
2023-03-12T13:33:44.984Z,9.20
2023-03-12T13:38:56.931Z,9.10
2023-03-12T13:44:02.315Z,8.50
2023-03-12T13:49:12.597Z,8.10
2023-03-12T13:54:19.894Z,7.80
2023-03-12T13:59:26.995Z,7.80
2023-03-12T14:04:41.400Z,8.00
2023-03-12T14:09:51.607Z,8.10
2023-03-12T14:15:08.489Z,8.10
2023-03-12T14:20:17.712Z,8.00
2023-03-12T14:25:29.517Z,8.10
2023-03-12T14:30:47.103Z,8.10
2023-03-12T14:35:56.880Z,8.00
2023-03-12T14:41:06.322Z,7.90
2023-03-12T14:46:18.372Z,7.70
2023-03-12T14:51:24.694Z,7.70
2023-03-12T14:56:30.888Z,7.70
2023-03-12T15:01:39.626Z,7.80
2023-03-12T15:06:46.919Z,7.80
2023-03-12T15:11:55.753Z,7.70
2023-03-12T15:17:01.511Z,7.60
2023-03-12T15:22:05.651Z,7.50
2023-03-12T15:27:24.447Z,7.60
2023-03-12T15:32:31.986Z,7.70
2023-03-12T15:37:38.352Z,7.80
2023-03-12T15:42:44.878Z,7.80
2023-03-12T15:47:50.880Z,7.80
2023-03-12T15:53:01.952Z,7.70
2023-03-12T15:58:24.992Z,7.70
2023-03-12T16:03:29.608Z,7.60
2023-03-12T16:08:39.366Z,7.60
2023-03-12T16:13:44.106Z,7.60
2023-03-12T16:18:48.740Z,7.50
2023-03-12T16:23:52.055Z,7.50
2023-03-12T16:28:55.369Z,7.50
2023-03-12T16:34:00.884Z,7.50
2023-03-12T16:39:04.315Z,7.50
2023-03-12T16:44:09.396Z,7.40
2023-03-12T16:49:16.627Z,7.40
2023-03-12T16:54:20.035Z,7.40
2023-03-12T16:59:26.430Z,7.40
2023-03-12T17:04:31.246Z,7.40
2023-03-12T17:09:34.776Z,7.30
2023-03-12T17:14:38.469Z,7.30
2023-03-12T17:19:43.116Z,7.40
2023-03-12T17:24:47.215Z,7.40
2023-03-12T17:29:50.646Z,7.40
2023-03-12T17:34:57.678Z,7.40
2023-03-12T17:40:01.806Z,7.40
2023-03-12T17:45:07.718Z,7.40
2023-03-12T17:50:14.292Z,7.40
2023-03-12T17:55:18.042Z,7.30
2023-03-12T18:00:23.073Z,7.30
2023-03-12T18:05:28.226Z,7.20
2023-03-12T18:10:32.935Z,7.20
2023-03-12T18:15:36.266Z,7.30
2023-03-12T18:20:41.018Z,7.40
2023-03-12T18:25:45.566Z,7.40
2023-03-12T18:30:49.412Z,7.50
2023-03-12T18:35:54.727Z,7.50
2023-03-12T18:41:12.475Z,7.50
2023-03-12T18:46:15.875Z,7.50
2023-03-12T18:51:20.837Z,7.50
2023-03-12T18:56:24.188Z,7.50
2023-03-12T19:01:27.526Z,7.50
2023-03-12T19:06:47.852Z,7.60
2023-03-12T19:11:53.347Z,7.60
2023-03-12T19:16:56.973Z,7.50
2023-03-12T19:22:01.718Z,7.50
2023-03-12T19:27:05.232Z,7.40
2023-03-12T19:32:09.304Z,7.50
2023-03-12T19:37:13.990Z,7.50
2023-03-12T19:42:17.711Z,7.60
2023-03-12T19:47:22.114Z,7.60
2023-03-12T19:52:27.315Z,7.60
2023-03-12T19:57:30.608Z,7.50
2023-03-12T20:02:34.104Z,7.50
2023-03-12T20:07:39.629Z,7.60
2023-03-12T20:12:43.109Z,7.60
2023-03-12T20:17:46.319Z,7.70
2023-03-12T20:22:50.913Z,7.60
2023-03-12T20:27:54.186Z,7.60
2023-03-12T20:32:57.455Z,7.60
2023-03-12T20:38:02.493Z,7.60
2023-03-12T20:43:06.265Z,7.60
2023-03-12T20:48:09.523Z,7.70
2023-03-12T20:53:14.537Z,7.70
2023-03-12T20:58:18.170Z,7.70
2023-03-12T21:03:21.564Z,7.80
2023-03-12T21:08:27.302Z,7.80
2023-03-12T21:13:31.058Z,7.80
2023-03-12T21:18:34.413Z,7.80
2023-03-12T21:23:39.635Z,7.80
2023-03-12T21:28:42.978Z,7.80
2023-03-12T21:33:49.020Z,7.80
2023-03-12T21:38:53.909Z,7.70
2023-03-12T21:43:57.437Z,7.70
2023-03-12T21:49:01.377Z,7.70
2023-03-12T21:54:06.583Z,7.60
2023-03-12T21:59:10.659Z,7.60
2023-03-12T22:04:14.356Z,7.50
2023-03-12T22:09:19.706Z,7.40
2023-03-12T22:14:24.272Z,7.40
2023-03-12T22:19:27.708Z,7.50
2023-03-12T22:24:32.403Z,7.50
2023-03-12T22:29:36.132Z,7.50
2023-03-12T22:34:39.389Z,7.60
2023-03-12T22:39:45.906Z,7.60
2023-03-12T22:44:49.231Z,7.60
2023-03-12T22:49:53.157Z,7.70
2023-03-12T22:54:57.759Z,7.70
2023-03-12T23:00:01.158Z,7.70
2023-03-12T23:05:04.584Z,7.70
2023-03-12T23:10:10.767Z,7.70
2023-03-12T23:15:14.111Z,7.80
2023-03-12T23:20:17.575Z,7.80
2023-03-12T23:25:22.386Z,7.90
2023-03-12T23:30:25.688Z,7.90
2023-03-12T23:35:29.047Z,8.00
2023-03-12T23:40:33.830Z,8.10
2023-03-12T23:45:37.404Z,8.10
2023-03-12T23:50:41.244Z,8.20
2023-03-12T23:55:55.407Z,8.20
